createdAt,value
2023-04-18T00:00:34.411Z,2.88
2023-04-18T00:10:43.399Z,2.97
2023-04-18T00:20:52.403Z,3.03
2023-04-18T00:31:01.508Z,2.74
2023-04-18T00:41:10.553Z,3.34
2023-04-18T00:51:19.536Z,2.78
2023-04-18T01:01:28.615Z,2.78
2023-04-18T01:11:37.661Z,3.02
2023-04-18T01:21:46.544Z,2.48
2023-04-18T01:31:55.391Z,2.52
2023-04-18T01:42:04.374Z,2.78
2023-04-18T01:52:13.352Z,3.45
2023-04-18T02:02:22.592Z,3.01
2023-04-18T02:12:31.519Z,3.4
2023-04-18T02:22:40.637Z,3.02
2023-04-18T02:32:49.632Z,3.1
2023-04-18T02:42:58.574Z,4.44
2023-04-18T02:53:07.888Z,4.15
2023-04-18T03:03:16.851Z,5.1
2023-04-18T03:13:25.873Z,5.21
2023-04-18T03:23:35.401Z,5.43
2023-04-18T03:33:44.391Z,5.02
2023-04-18T03:43:53.352Z,5.51
2023-04-18T03:54:02.354Z,4.39
2023-04-18T04:04:11.353Z,4.75
2023-04-18T04:14:20.428Z,4.66
2023-04-18T04:24:29.316Z,4.36
2023-04-18T04:34:38.476Z,4.56
2023-04-18T04:44:47.663Z,4.74
2023-04-18T04:54:56.980Z,5.72
2023-04-18T05:05:06.155Z,5.04
2023-04-18T05:15:15.675Z,5.36
2023-04-18T05:25:24.676Z,5.82
2023-04-18T05:35:33.617Z,5.6
2023-04-18T05:45:42.515Z,5.98
2023-04-18T05:55:51.488Z,5.97
2023-04-18T06:06:01.582Z,5.38
2023-04-18T06:16:02.509Z,5.01
2023-04-18T06:26:02.622Z,5.49
2023-04-18T06:46:04.229Z,6.93
2023-04-18T06:56:13.459Z,6.56
2023-04-18T07:06:22.585Z,7
2023-04-18T07:16:34.561Z,6.44
2023-04-18T07:26:33.777Z,4.39
2023-04-18T07:36:42.822Z,4.52
2023-04-18T07:47:01.893Z,3.32
2023-04-18T07:57:01.185Z,6.6
2023-04-18T08:07:12.691Z,3.55
2023-04-18T08:17:11.927Z,2.29
2023-04-18T08:27:22.449Z,2.58
2023-04-18T08:37:21.443Z,2.26
2023-04-18T08:47:32.491Z,2.2
2023-04-18T08:57:31.567Z,2.31
2023-04-18T09:07:40.796Z,1.84
2023-04-18T09:17:50.977Z,1.88
2023-04-18T09:27:52.714Z,2.12
2023-04-18T09:37:55.043Z,2.13
2023-04-18T09:47:55.202Z,1.81
2023-04-18T09:57:54.296Z,1.88
2023-04-18T10:08:03.204Z,1.74
2023-04-18T10:18:13.136Z,1.99
2023-04-18T10:28:22.557Z,1.66
2023-04-18T10:38:34.712Z,2.15
2023-04-18T10:48:38.479Z,1.86
2023-04-18T10:58:36.267Z,1.64
2023-04-18T11:08:35.885Z,1.88
2023-04-18T11:18:46.715Z,1.84
2023-04-18T11:28:46.048Z,1.81
2023-04-18T11:38:55.285Z,2.03
2023-04-18T11:49:04.577Z,1.74
2023-04-18T11:59:13.781Z,1.89
2023-04-18T12:09:26.324Z,1.92
2023-04-18T12:19:26.454Z,2.18
2023-04-18T12:29:25.303Z,1.5
2023-04-18T12:39:34.688Z,1.7
2023-04-18T12:49:44.474Z,1.85
2023-04-18T12:59:59.599Z,1.62
2023-04-18T13:10:00.193Z,1.67
2023-04-18T13:19:59.353Z,1.82
2023-04-18T13:30:08.492Z,1.56
2023-04-18T13:40:19.286Z,2.13
2023-04-18T13:50:20.779Z,1.75
2023-04-18T14:00:19.778Z,1.65
2023-04-18T14:10:28.756Z,1.55
2023-04-18T14:20:37.866Z,1.81
2023-04-18T14:30:46.878Z,1.53
2023-04-18T14:40:56.013Z,1.74
2023-04-18T14:51:05.201Z,1.56
2023-04-18T15:01:15.324Z,1.54
2023-04-18T15:11:15.491Z,1.64
2023-04-18T15:21:14.391Z,1.65
2023-04-18T15:31:23.513Z,1.65
2023-04-18T15:41:33.373Z,1.71
2023-04-18T15:51:45.476Z,1.56
2023-04-18T16:01:48.386Z,1.66
2023-04-18T16:11:47.433Z,1.54
2023-04-18T16:21:56.335Z,1.6
2023-04-18T16:32:06.512Z,1.86
2023-04-18T16:42:05.453Z,1.62
2023-04-18T16:52:14.455Z,1.76
2023-04-18T17:02:23.634Z,1.98
2023-04-18T17:12:32.216Z,1.5
2023-04-18T17:22:41.190Z,2.2
2023-04-18T17:32:51.630Z,1.6
2023-04-18T17:42:59.433Z,1.84
2023-04-18T17:53:08.302Z,1.76
2023-04-18T18:03:18.973Z,1.92
2023-04-18T18:13:17.880Z,2.22
2023-04-18T18:23:26.789Z,2.01
2023-04-18T18:33:35.697Z,2.14
2023-04-18T18:43:44.700Z,2.34
2023-04-18T18:53:55.008Z,3.32
2023-04-18T19:03:54.225Z,3.09
2023-04-18T19:14:03.810Z,2.62
2023-04-18T19:24:21.283Z,3.21
2023-04-18T19:34:21.758Z,2.81
2023-04-18T19:44:33.469Z,2.74
2023-04-18T19:54:24.715Z,2.11
2023-04-18T20:04:39.005Z,2.3
2023-04-18T20:14:30.530Z,3.23
2023-04-18T20:24:30.898Z,3.18
2023-04-18T20:34:34.437Z,2.72
2023-04-18T20:45:11.701Z,2.9
2023-04-18T21:04:46.978Z,2.8
2023-04-18T21:14:47.761Z,2.74
2023-04-18T21:24:52.869Z,2.59
2023-04-18T21:34:52.906Z,2.77
2023-04-18T21:44:52.051Z,3.08
2023-04-18T21:55:01.301Z,2.91
2023-04-18T22:05:12.607Z,3.02
2023-04-18T22:25:23.980Z,4.75
2023-04-18T22:35:23.214Z,4.44
2023-04-18T22:45:48.227Z,4.54
2023-04-18T22:55:36.846Z,4.71
2023-04-18T23:05:46.092Z,3.97
2023-04-18T23:15:57.036Z,3.77
2023-04-18T23:35:58.407Z,3.7
2023-04-18T23:46:07.463Z,3.39
2023-04-18T23:56:17.183Z,4.46
